createdAt,value
2023-04-10T00:01:10.662Z,96151.06
2023-04-10T00:03:38.483Z,96156.41
2023-04-10T00:06:07.563Z,96156.41
2023-04-10T00:08:36.680Z,96157.66
2023-04-10T00:11:04.604Z,96155.38
2023-04-10T00:13:32.319Z,96147.97
2023-04-10T00:15:59.977Z,96155.34
2023-04-10T00:18:28.702Z,96154.75
2023-04-10T00:21:06.161Z,96153.94
2023-04-10T00:23:34.696Z,96146.38
2023-04-10T00:26:04.167Z,96144.53
2023-04-10T00:28:31.919Z,96145.53
2023-04-10T00:30:59.650Z,96137.75
2023-04-10T00:33:27.292Z,96135.66
2023-04-10T00:35:55.056Z,96132.00
2023-04-10T00:38:22.977Z,96125.19
2023-04-10T00:40:50.896Z,96127.25
2023-04-10T00:43:21.190Z,96127.63
2023-04-10T00:45:50.477Z,96125.19
2023-04-10T00:48:18.831Z,96122.91
2023-04-10T00:50:47.377Z,96119.03
2023-04-10T00:53:15.278Z,96121.66
2023-04-10T00:55:43.171Z,96124.94
2023-04-10T00:58:14.232Z,96115.44
2023-04-10T01:00:43.322Z,96113.38
2023-04-10T01:03:16.537Z,96119.91
2023-04-10T01:05:52.578Z,96112.59
2023-04-10T01:08:32.014Z,96117.53
2023-04-10T01:11:06.579Z,96110.38
2023-04-10T01:13:46.339Z,96115.06
2023-04-10T01:16:19.839Z,96113.75
2023-04-10T01:18:52.019Z,96118.06
2023-04-10T01:21:22.601Z,96116.75
2023-04-10T01:24:07.537Z,96119.03
2023-04-10T01:26:48.834Z,96116.34
2023-04-10T01:29:20.720Z,96122.44
2023-04-10T01:31:55.348Z,96123.03
2023-04-10T01:34:34.952Z,96118.72
2023-04-10T01:37:05.971Z,96110.97
2023-04-10T01:39:38.800Z,96106.88
2023-04-10T01:42:08.352Z,96107.06
2023-04-10T01:44:42.300Z,96100.91
2023-04-10T01:47:10.058Z,96105.59
2023-04-10T01:49:44.482Z,96101.53
2023-04-10T01:52:12.976Z,96101.72
2023-04-10T01:54:41.159Z,96089.63
2023-04-10T01:57:10.272Z,96093.94
2023-04-10T01:59:40.405Z,96100.06
2023-04-10T02:02:11.745Z,96100.06
2023-04-10T02:04:40.512Z,96085.13
2023-04-10T02:07:12.845Z,96091.03
2023-04-10T02:09:50.024Z,96082.84
2023-04-10T02:12:23.575Z,96089.63
2023-04-10T02:14:55.618Z,96090.44
2023-04-10T02:17:29.491Z,96091.91
2023-04-10T02:19:58.499Z,96092.72
2023-04-10T02:22:27.066Z,96100.72
2023-04-10T02:24:55.500Z,96089.84
2023-04-10T02:27:30.600Z,96094.38
2023-04-10T02:29:59.874Z,96081.06
2023-04-10T02:32:27.817Z,96084.94
2023-04-10T02:34:56.427Z,96087.16
2023-04-10T02:37:24.469Z,96090.78
2023-04-10T02:39:52.315Z,96089.13
2023-04-10T02:42:20.052Z,96089.13
2023-04-10T02:44:48.610Z,96094.25
2023-04-10T02:47:18.740Z,96092.22
2023-04-10T02:49:46.507Z,96101.44
2023-04-10T02:52:14.192Z,96092.44
2023-04-10T02:54:41.952Z,96094.69
2023-04-10T02:57:09.661Z,96097.94
2023-04-10T02:59:37.320Z,96097.31
2023-04-10T03:02:05.135Z,96098.31
2023-04-10T03:04:34.607Z,96089.25
2023-04-10T03:07:02.377Z,96091.28
2023-04-10T03:09:30.093Z,96081.25
2023-04-10T03:11:57.882Z,96092.91
2023-04-10T03:14:25.555Z,96087.16
2023-04-10T03:16:53.244Z,96088.41
2023-04-10T03:19:20.949Z,96096.19
2023-04-10T03:21:50.039Z,96086.78
2023-04-10T03:24:17.756Z,96086.16
2023-04-10T03:26:45.577Z,96086.59
2023-04-10T03:29:14.050Z,96081.09
2023-04-10T03:31:42.211Z,96074.69
2023-04-10T03:34:09.976Z,96085.56
2023-04-10T03:36:37.673Z,96080.22
2023-04-10T03:39:06.833Z,96079.78
2023-04-10T03:41:34.512Z,96086.38
2023-04-10T03:44:03.850Z,96083.09
2023-04-10T03:46:31.569Z,96088.41
2023-04-10T03:48:59.527Z,96087.56
2023-04-10T03:51:27.408Z,96087.78
2023-04-10T03:53:55.790Z,96094.47
2023-04-10T03:56:25.067Z,96096.31
2023-04-10T03:58:52.735Z,96089.34
2023-04-10T04:01:22.091Z,96099.44
2023-04-10T04:03:49.984Z,96091.25
2023-04-10T04:06:17.870Z,96094.09
2023-04-10T04:08:45.575Z,96090.00
2023-04-10T04:11:13.248Z,96090.06
2023-04-10T04:13:42.288Z,96087.56
2023-04-10T04:16:11.132Z,96089.81
2023-04-10T04:18:39.472Z,96093.53
2023-04-10T04:21:08.473Z,96089.41
2023-04-10T04:23:36.198Z,96095.31
2023-04-10T04:26:03.896Z,96086.69
2023-04-10T04:28:31.578Z,96086.88
2023-04-10T04:31:00.972Z,96087.91
2023-04-10T04:33:28.764Z,96086.06
2023-04-10T04:35:58.093Z,96087.53
2023-04-10T04:38:25.843Z,96085.94
2023-04-10T04:40:53.543Z,96107.03
2023-04-10T04:43:21.318Z,96096.72
2023-04-10T04:45:49.062Z,96106.78
2023-04-10T04:48:18.538Z,96107.88
2023-04-10T04:50:46.533Z,96112.75
2023-04-10T04:53:14.674Z,96102.75
2023-04-10T04:55:42.388Z,96100.47
2023-04-10T04:58:10.093Z,96100.91
2023-04-10T05:00:37.784Z,96099.72
2023-04-10T05:03:06.862Z,96098.94
2023-04-10T05:05:36.081Z,96104.06
2023-04-10T05:08:03.853Z,96103.09
2023-04-10T05:10:31.665Z,96110.16
2023-04-10T05:12:59.371Z,96108.72
2023-04-10T05:15:27.091Z,96108.34
2023-04-10T05:17:54.853Z,96112.63
2023-04-10T05:20:22.701Z,96105.47
2023-04-10T05:22:52.975Z,96106.28
2023-04-10T05:25:20.767Z,96098.09
2023-04-10T05:27:48.474Z,96097.72
2023-04-10T05:30:16.198Z,96099.78
2023-04-10T05:32:43.968Z,96094.66
2023-04-10T05:35:11.650Z,96098.16
2023-04-10T05:37:39.491Z,96101.25
2023-04-10T05:40:10.456Z,96103.94
2023-04-10T05:42:38.168Z,96106.84
2023-04-10T05:45:06.982Z,96108.50
2023-04-10T05:47:34.675Z,96108.53
2023-04-10T05:50:02.374Z,96102.38
2023-04-10T05:52:30.074Z,96107.28
2023-04-10T05:54:57.738Z,96108.31
2023-04-10T05:57:26.951Z,96110.59
2023-04-10T05:59:54.644Z,96113.84
2023-04-10T06:02:23.059Z,96116.69
2023-04-10T06:04:51.384Z,96110.09
2023-04-10T06:07:19.081Z,96114.00
2023-04-10T06:09:46.759Z,96119.28
2023-04-10T06:12:14.492Z,96109.78
2023-04-10T06:14:43.579Z,96113.84
2023-04-10T06:17:11.404Z,96114.59
2023-04-10T06:19:39.120Z,96118.88
2023-04-10T06:22:07.170Z,96112.56
2023-04-10T06:24:34.860Z,96117.84
2023-04-10T06:27:03.240Z,96114.44
2023-04-10T06:29:31.022Z,96118.84
2023-04-10T06:32:00.605Z,96104.09
2023-04-10T06:34:28.459Z,96094.22
2023-04-10T06:36:56.169Z,96090.16
2023-04-10T06:39:23.823Z,96079.69
2023-04-10T06:41:51.479Z,96083.63
2023-04-10T06:44:19.160Z,96088.75
2023-04-10T06:46:46.992Z,96080.91
2023-04-10T06:49:16.125Z,96075.84
2023-04-10T06:51:45.699Z,96077.66
2023-04-10T06:54:13.433Z,96072.34
2023-04-10T06:56:41.359Z,96063.41
2023-04-10T06:59:09.075Z,96063.75
2023-04-10T07:01:36.993Z,96066.81
2023-04-10T07:04:04.954Z,96058.63
2023-04-10T07:06:34.023Z,96057.44
2023-04-10T07:09:01.714Z,96052.16
2023-04-10T07:11:29.426Z,96050.59
2023-04-10T07:13:58.826Z,96048.13
2023-04-10T07:16:27.489Z,96043.69
2023-04-10T07:18:55.557Z,96036.16
2023-04-10T07:21:23.492Z,96046.63
2023-04-10T07:23:52.569Z,96040.84
2023-04-10T07:26:20.669Z,96040.03
2023-04-10T07:28:48.373Z,96036.28
2023-04-10T07:31:17.765Z,96037.94
2023-04-10T07:33:46.716Z,96034.25
2023-04-10T07:36:14.673Z,96037.13
2023-04-10T07:38:43.192Z,96038.22
2023-04-10T07:41:12.442Z,96036.19
2023-04-10T07:43:40.230Z,96044.47
2023-04-10T07:46:08.448Z,96033.50
2023-04-10T07:48:36.615Z,96029.84
2023-04-10T07:51:04.631Z,96036.50
2023-04-10T07:53:32.332Z,96038.22
2023-04-10T07:56:00.118Z,96024.50
2023-04-10T07:58:29.357Z,96035.66
2023-04-10T08:00:57.034Z,96029.34
2023-04-10T08:03:24.804Z,96028.34
2023-04-10T08:05:53.004Z,96032.50
2023-04-10T08:08:20.779Z,96022.88
2023-04-10T08:10:48.616Z,96023.75
2023-04-10T08:13:16.431Z,96021.13
2023-04-10T08:15:45.724Z,96015.25
2023-04-10T08:18:13.400Z,96017.78
2023-04-10T08:20:41.050Z,96020.84
2023-04-10T08:25:56.377Z,96015.81
2023-04-10T08:28:24.264Z,96014.25
2023-04-10T08:30:54.285Z,96015.38
2023-04-10T08:33:22.100Z,96017.56
2023-04-10T08:35:49.882Z,96017.03
2023-04-10T08:38:17.584Z,96015.41
2023-04-10T08:40:45.393Z,96016.50
2023-04-10T08:43:13.196Z,96012.44
2023-04-10T08:45:41.885Z,96013.00
2023-04-10T08:48:11.907Z,96014.88
2023-04-10T08:50:43.224Z,96007.56
2023-04-10T08:53:13.096Z,96005.66
2023-04-10T08:55:49.746Z,96010.81
2023-04-10T08:58:17.779Z,96011.09
2023-04-10T09:00:45.572Z,96009.97
2023-04-10T09:03:17.550Z,96008.56
2023-04-10T09:05:45.355Z,96005.31
2023-04-10T09:08:15.989Z,96017.50
2023-04-10T09:10:43.671Z,96007.69
2023-04-10T09:13:11.330Z,96005.47
2023-04-10T09:15:58.406Z,95998.38
2023-04-10T09:18:42.454Z,95994.78
2023-04-10T09:21:11.062Z,95992.31
2023-04-10T09:23:39.287Z,95997.38
2023-04-10T09:26:23.909Z,95997.44
2023-04-10T09:29:02.758Z,95986.03
2023-04-10T09:31:32.698Z,95976.97
2023-04-10T09:34:12.957Z,95974.84
2023-04-10T09:36:42.409Z,95980.59
2023-04-10T09:39:11.747Z,95966.44
2023-04-10T09:41:50.315Z,95967.13
2023-04-10T09:44:20.019Z,95958.84
2023-04-10T09:46:49.609Z,95960.56
2023-04-10T09:49:18.828Z,95948.09
2023-04-10T09:51:47.426Z,95943.25
2023-04-10T09:54:15.299Z,95940.34
2023-04-10T09:56:46.476Z,95943.22
2023-04-10T09:59:15.651Z,95946.31
2023-04-10T10:01:44.014Z,95934.19
2023-04-10T10:04:15.623Z,95928.97
2023-04-10T10:06:45.253Z,95928.41
2023-04-10T10:09:16.475Z,95929.00
2023-04-10T10:11:44.355Z,95917.88
2023-04-10T10:14:18.611Z,95917.16
2023-04-10T10:16:51.006Z,95905.41
2023-04-10T10:19:24.520Z,95907.19
2023-04-10T10:21:55.968Z,95907.50
2023-04-10T10:24:26.412Z,95903.94
2023-04-10T10:26:57.235Z,95896.31
2023-04-10T10:29:25.577Z,95889.41
2023-04-10T10:31:55.101Z,95897.03
2023-04-10T10:34:23.245Z,95891.75
2023-04-10T10:36:51.427Z,95877.13
2023-04-10T10:39:33.744Z,95882.81
2023-04-10T10:42:10.058Z,95869.97
2023-04-10T10:44:43.904Z,95872.25
2023-04-10T10:47:17.292Z,95863.06
2023-04-10T10:49:58.430Z,95868.19
2023-04-10T10:52:39.970Z,95866.69
2023-04-10T10:55:35.946Z,95860.84
2023-04-10T10:58:08.591Z,95862.63
2023-04-10T11:01:18.908Z,95845.00
2023-04-10T11:03:47.161Z,95854.06
2023-04-10T11:06:19.395Z,95850.00
2023-04-10T11:08:48.381Z,95854.03
2023-04-10T11:11:20.032Z,95833.78
2023-04-10T11:14:20.138Z,95832.06
2023-04-10T11:16:48.913Z,95824.34
2023-04-10T11:19:22.522Z,95820.16
2023-04-10T11:22:05.498Z,95822.41
2023-04-10T11:24:58.968Z,95824.97
2023-04-10T11:27:55.551Z,95818.47
2023-04-10T11:30:34.556Z,95805.97
2023-04-10T11:33:04.076Z,95807.38
2023-04-10T11:35:33.155Z,95813.59
2023-04-10T11:38:11.458Z,95809.84
2023-04-10T11:40:58.626Z,95802.16
2023-04-10T11:43:27.791Z,95800.97
2023-04-10T11:46:04.063Z,95788.75
2023-04-10T11:48:32.414Z,95794.25
2023-04-10T11:51:02.062Z,95782.09
2023-04-10T11:53:30.183Z,95779.19
2023-04-10T11:55:58.482Z,95778.06
2023-04-10T11:58:29.937Z,95775.25
2023-04-10T12:01:02.255Z,95771.09
2023-04-10T12:03:38.022Z,95769.72
2023-04-10T12:06:08.745Z,95763.53
2023-04-10T12:08:37.860Z,95774.75
2023-04-10T12:11:06.147Z,95773.22
2023-04-10T12:13:35.730Z,95769.97
2023-04-10T12:16:05.956Z,95777.63
2023-04-10T12:18:34.487Z,95756.94
2023-04-10T12:21:02.694Z,95758.00
2023-04-10T12:23:31.457Z,95763.97
2023-04-10T12:26:11.842Z,95766.88
2023-04-10T12:28:42.910Z,95762.91
2023-04-10T12:31:11.132Z,95764.06
2023-04-10T12:33:38.948Z,95755.72
2023-04-10T12:36:07.372Z,95757.06
2023-04-10T12:38:40.166Z,95755.13
2023-04-10T12:41:08.590Z,95760.81
2023-04-10T12:43:38.573Z,95756.59
2023-04-10T12:46:09.237Z,95746.84
2023-04-10T12:48:37.225Z,95756.09
2023-04-10T12:51:05.365Z,95743.06
2023-04-10T12:53:43.441Z,95746.88
2023-04-10T12:56:12.252Z,95741.13
2023-04-10T12:58:42.420Z,95743.69
2023-04-10T13:01:11.493Z,95740.13
2023-04-10T13:03:39.609Z,95733.63
2023-04-10T13:06:08.673Z,95729.47
2023-04-10T13:08:37.361Z,95731.94
2023-04-10T13:11:05.727Z,95724.88
2023-04-10T13:13:33.664Z,95725.34
2023-04-10T13:16:01.497Z,95733.59
2023-04-10T13:18:30.605Z,95727.47
2023-04-10T13:20:58.264Z,95717.63
2023-04-10T13:23:25.949Z,95717.78
2023-04-10T13:25:53.681Z,95722.47
2023-04-10T13:28:21.832Z,95703.81
2023-04-10T13:30:49.542Z,95709.13
2023-04-10T13:33:17.224Z,95697.59
2023-04-10T13:35:46.359Z,95694.50
2023-04-10T13:38:14.032Z,95683.75
2023-04-10T13:40:41.747Z,95677.69
2023-04-10T13:43:09.432Z,95672.25
2023-04-10T13:45:37.144Z,95661.81
2023-04-10T13:48:07.198Z,95655.44
2023-04-10T13:50:35.176Z,95638.88
2023-04-10T13:53:04.216Z,95634.56
2023-04-10T13:55:31.903Z,95643.69
2023-04-10T13:57:59.573Z,95646.59
2023-04-10T14:00:27.706Z,95660.69
2023-04-10T14:02:55.619Z,95655.94
2023-04-10T14:05:23.516Z,95658.53
2023-04-10T14:07:56.730Z,95662.25
2023-04-10T14:10:25.838Z,95660.25
2023-04-10T14:12:53.548Z,95652.56
2023-04-10T14:15:21.323Z,95652.34
2023-04-10T14:17:49.058Z,95641.31
2023-04-10T14:20:16.780Z,95641.72
2023-04-10T14:22:44.424Z,95639.63
2023-04-10T14:25:15.860Z,95629.75
2023-04-10T14:27:45.597Z,95622.75
2023-04-10T14:30:13.821Z,95609.63
2023-04-10T14:32:41.616Z,95613.78
2023-04-10T14:35:10.341Z,95623.06
2023-04-10T14:37:38.333Z,95621.38
2023-04-10T14:40:07.256Z,95612.41
2023-04-10T14:42:34.997Z,95608.19
2023-04-10T14:45:05.555Z,95600.78
2023-04-10T14:47:33.403Z,95602.06
2023-04-10T14:50:01.125Z,95604.66
2023-04-10T14:52:28.793Z,95609.50
2023-04-10T14:54:56.535Z,95610.78
2023-04-10T14:57:24.295Z,95617.09
2023-04-10T14:59:51.972Z,95601.91
2023-04-10T15:02:21.104Z,95605.31
2023-04-10T15:04:48.973Z,95601.09
2023-04-10T15:07:16.660Z,95593.03
2023-04-10T15:09:44.591Z,95595.09
2023-04-10T15:12:12.313Z,95594.09
2023-04-10T15:14:40.081Z,95586.00
2023-04-10T15:17:07.894Z,95576.97
2023-04-10T15:19:36.960Z,95563.13
2023-04-10T15:22:04.670Z,95568.28
2023-04-10T15:24:39.885Z,95569.72
2023-04-10T15:27:15.091Z,95563.59
2023-04-10T15:29:43.872Z,95554.66
2023-04-10T15:32:11.538Z,95554.81
2023-04-10T15:34:41.414Z,95563.03
2023-04-10T15:37:09.116Z,95565.63
2023-04-10T15:39:37.607Z,95567.25
2023-04-10T15:42:07.453Z,95561.28
2023-04-10T15:44:35.190Z,95554.34
2023-04-10T15:47:02.970Z,95563.53
2023-04-10T15:49:37.684Z,95558.53
2023-04-10T15:52:08.236Z,95552.59
2023-04-10T15:54:36.126Z,95558.03
2023-04-10T15:57:04.327Z,95556.28
2023-04-10T15:59:33.413Z,95551.44
2023-04-10T16:02:01.274Z,95544.03
2023-04-10T16:04:29.348Z,95550.94
2023-04-10T16:06:57.287Z,95544.44
2023-04-10T16:09:27.023Z,95546.91
2023-04-10T16:11:54.938Z,95548.06
2023-04-10T16:14:22.821Z,95543.38
2023-04-10T16:16:57.799Z,95542.75
2023-04-10T16:19:25.484Z,95537.59
2023-04-10T16:21:53.345Z,95534.97
2023-04-10T16:24:21.040Z,95528.97
2023-04-10T16:26:50.201Z,95540.34
2023-04-10T16:29:19.793Z,95536.41
2023-04-10T16:31:47.539Z,95534.94
2023-04-10T16:34:15.357Z,95540.81
2023-04-10T16:36:43.548Z,95534.69
2023-04-10T16:39:11.231Z,95535.13
2023-04-10T16:41:39.005Z,95538.63
2023-04-10T16:44:08.062Z,95532.31
2023-04-10T16:46:36.215Z,95535.63
2023-04-10T16:49:05.326Z,95533.53
2023-04-10T16:51:33.018Z,95536.50
2023-04-10T16:54:00.834Z,95537.41
2023-04-10T16:56:28.529Z,95532.31
2023-04-10T16:58:57.405Z,95524.19
2023-04-10T17:01:27.168Z,95524.88
2023-04-10T17:03:55.469Z,95523.81
2023-04-10T17:06:23.251Z,95519.09
2023-04-10T17:08:51.014Z,95513.63
2023-04-10T17:11:18.726Z,95516.88
2023-04-10T17:13:47.193Z,95519.19
2023-04-10T17:16:15.580Z,95518.97
2023-04-10T17:18:45.025Z,95511.09
2023-04-10T17:21:13.152Z,95515.81
2023-04-10T17:23:40.938Z,95502.22
2023-04-10T17:26:14.329Z,95501.09
2023-04-10T17:28:44.312Z,95502.06
2023-04-10T17:31:12.108Z,95497.22
2023-04-10T17:33:41.672Z,95498.03
2023-04-10T17:36:12.280Z,95499.34
2023-04-10T17:38:40.375Z,95495.75
2023-04-10T17:41:09.215Z,95489.94
2023-04-10T17:43:37.120Z,95486.28
2023-04-10T17:46:04.933Z,95490.75
2023-04-10T17:48:34.387Z,95491.75
2023-04-10T17:51:06.202Z,95489.94
2023-04-10T17:53:35.840Z,95490.91
2023-04-10T17:56:03.612Z,95491.31
2023-04-10T17:58:31.512Z,95488.38
2023-04-10T18:00:59.213Z,95486.56
2023-04-10T18:03:27.043Z,95492.63
2023-04-10T18:05:54.812Z,95495.97
2023-04-10T18:08:22.469Z,95487.63
2023-04-10T18:10:51.544Z,95488.75
2023-04-10T18:13:19.529Z,95486.97
2023-04-10T18:15:47.321Z,95496.25
2023-04-10T18:18:14.985Z,95489.00
2023-04-10T18:20:42.669Z,95490.38
2023-04-10T18:23:10.306Z,95485.84
2023-04-10T18:25:38.030Z,95487.47
2023-04-10T18:30:39.504Z,95488.94
2023-04-10T18:33:20.487Z,95488.50
2023-04-10T18:35:48.200Z,95482.56
2023-04-10T18:38:15.893Z,95479.59
2023-04-10T18:40:43.560Z,95476.97
2023-04-10T18:43:12.649Z,95476.69
2023-04-10T18:45:42.095Z,95480.53
2023-04-10T18:48:10.000Z,95477.34
2023-04-10T18:50:39.022Z,95478.72
2023-04-10T18:53:06.720Z,95486.88
2023-04-10T18:55:34.447Z,95482.28
2023-04-10T18:58:02.114Z,95480.97
2023-04-10T19:00:32.023Z,95483.16
2023-04-10T19:02:59.763Z,95478.63
2023-04-10T19:05:27.674Z,95477.56
2023-04-10T19:08:03.597Z,95477.09
2023-04-10T19:10:33.993Z,95479.81
2023-04-10T19:13:01.679Z,95486.38
2023-04-10T19:15:31.456Z,95495.84
2023-04-10T19:17:59.214Z,95492.63
2023-04-10T19:20:50.231Z,95481.25
2023-04-10T19:23:14.629Z,95480.22
2023-04-10T19:25:52.625Z,95463.44
2023-04-10T19:28:20.461Z,95460.78
2023-04-10T19:30:49.765Z,95448.09
2023-04-10T19:33:18.004Z,95445.13
2023-04-10T19:35:45.704Z,95443.53
2023-04-10T19:38:13.434Z,95441.91
2023-04-10T19:40:41.088Z,95431.91
2023-04-10T19:43:08.877Z,95426.50
2023-04-10T19:45:37.416Z,95425.13
2023-04-10T19:48:07.937Z,95418.34
2023-04-10T19:50:35.634Z,95419.97
2023-04-10T19:53:03.350Z,95424.56
2023-04-10T19:55:31.578Z,95425.34
2023-04-10T19:57:59.274Z,95419.94
2023-04-10T20:00:27.049Z,95415.59
2023-04-10T20:02:55.147Z,95418.59
2023-04-10T20:05:24.361Z,95418.59
2023-04-10T20:07:52.174Z,95431.56
2023-04-10T20:10:20.610Z,95436.19
2023-04-10T20:12:48.361Z,95426.44
2023-04-10T20:15:16.084Z,95420.25
2023-04-10T20:17:43.808Z,95415.88
2023-04-10T20:20:13.252Z,95413.44
2023-04-10T20:22:43.065Z,95416.69
2023-04-10T20:25:11.095Z,95408.84
2023-04-10T20:27:38.792Z,95416.16
2023-04-10T20:30:07.909Z,95409.13
2023-04-10T20:32:35.694Z,95411.59
2023-04-10T20:35:03.468Z,95397.00
2023-04-10T20:37:31.190Z,95391.34
2023-04-10T20:40:00.849Z,95400.25
2023-04-10T20:42:28.778Z,95404.34
2023-04-10T20:44:56.516Z,95415.97
2023-04-10T20:47:24.222Z,95419.22
2023-04-10T20:49:51.876Z,95420.84
2023-04-10T20:52:19.511Z,95406.78
2023-04-10T20:54:47.199Z,95411.91
2023-04-10T20:57:16.196Z,95408.16
2023-04-10T20:59:44.085Z,95416.22
2023-04-10T21:02:13.166Z,95414.88
2023-04-10T21:04:40.946Z,95410.81
2023-04-10T21:07:08.654Z,95410.56
2023-04-10T21:09:36.396Z,95422.19
2023-04-10T21:12:04.372Z,95423.50
2023-04-10T21:14:33.402Z,95413.78
2023-04-10T21:17:01.212Z,95412.44
2023-04-10T21:19:29.146Z,95404.84
2023-04-10T21:21:57.157Z,95414.81
2023-04-10T21:24:24.859Z,95415.88
2023-04-10T21:26:52.550Z,95414.56
2023-04-10T21:29:20.240Z,95415.06
2023-04-10T21:31:53.735Z,95404.56
2023-04-10T21:34:21.499Z,95406.72
2023-04-10T21:36:49.419Z,95407.25
2023-04-10T21:39:17.065Z,95401.00
2023-04-10T21:41:45.124Z,95411.78
2023-04-10T21:44:12.808Z,95415.78
2023-04-10T21:46:40.415Z,95416.03
2023-04-10T21:49:10.324Z,95410.38
2023-04-10T21:51:38.069Z,95410.63
2023-04-10T21:54:05.861Z,95403.31
2023-04-10T21:56:35.428Z,95408.69
2023-04-10T21:59:03.508Z,95405.13
2023-04-10T22:01:31.227Z,95405.09
2023-04-10T22:03:59.006Z,95393.47
2023-04-10T22:06:28.104Z,95387.25
2023-04-10T22:08:55.865Z,95391.00
2023-04-10T22:11:23.706Z,95386.94
2023-04-10T22:13:52.181Z,95382.06
2023-04-10T22:16:21.561Z,95373.72
2023-04-10T22:18:49.491Z,95376.94
2023-04-10T22:21:17.222Z,95368.84
2023-04-10T22:23:46.285Z,95372.06
2023-04-10T22:26:13.973Z,95355.34
2023-04-10T22:28:41.684Z,95354.53
2023-04-10T22:31:15.453Z,95361.03
2023-04-10T22:33:43.248Z,95360.53
2023-04-10T22:36:11.139Z,95361.69
2023-04-10T22:38:39.017Z,95364.97
2023-04-10T22:41:10.758Z,95359.13
2023-04-10T22:43:38.404Z,95364.28
2023-04-10T22:46:06.383Z,95372.44
2023-04-10T22:48:34.112Z,95365.72
2023-04-10T22:51:01.801Z,95361.97
2023-04-10T22:59:18.338Z,95350.34
2023-04-10T23:01:46.180Z,95350.84
2023-04-10T23:04:14.034Z,95350.56
2023-04-10T23:06:41.759Z,95343.50
2023-04-10T23:09:09.424Z,95333.78
2023-04-10T23:11:37.608Z,95336.16
2023-04-10T23:14:05.255Z,95327.22
2023-04-10T23:16:34.395Z,95321.22
2023-04-10T23:19:02.091Z,95308.78
2023-04-10T23:21:29.764Z,95304.72
2023-04-10T23:23:57.371Z,95296.53
2023-04-10T23:26:25.022Z,95311.66
2023-04-10T23:28:52.981Z,95302.72
2023-04-10T23:31:20.902Z,95292.97
2023-04-10T23:33:50.009Z,95297.00
2023-04-10T23:36:17.736Z,95288.84
2023-04-10T23:38:45.426Z,95289.38
2023-04-10T23:41:13.144Z,95283.69
2023-04-10T23:43:41.078Z,95286.63
2023-04-10T23:46:08.873Z,95286.84
2023-04-10T23:48:36.559Z,95276.28
2023-04-10T23:51:07.241Z,95277.03
2023-04-10T23:53:35.331Z,95276.75
2023-04-10T23:56:03.126Z,95274.56
2023-04-10T23:58:30.922Z,95274.25
